Augusta, Ohio
Current Conditions -  °F | °C
As of 5:18 AM on Monday 26 Jan 2015 (Local Time) from KPHD Reporting Station
Light Snow Light Snow  
Wind Chill: 13°   Ceiling: 2600
Heat Index: 22°   Visibility: 3mi
Dew Point: 17°   Wind: 7mph
Humidity: 82%   Direction: 10°N
Pressure: 29.74"   Gusts: NA
Location:  40.69°N, 81.02°W
Report Text: KPHD 261018Z AUTO 01006KT 3SM -SN FEW021 BKN026 OVC039 M06/M08 A2974 RMK AO2 SNB14 P0000 T10561083
Loading
Personal Weather Stations






























Interactive Weather Map New forecast layout! Learn more

10-Day Weather Forecast

Advertisements
Track Severe Weather on mobile